Time;durP1;ratioP1;P1;durP2;ratioP2;P2;SDS_P1;SDS_P2;PMS_P1;PMS_P2;Temp;Humidity;BMP_temperature;BMP_pressure;BME280_temperature;BME280_humidity;BME280_pressure;Samples;Min_cycle;Max_cycle;Signal;HPM_P1;HPM_P2
2022/09/30 00:01:42;;;;;;;18.67;13.43;;;7.00;99.90;;;;;;5064661;28;20219;-61
2022/09/30 00:04:15;;;;;;;19.63;14.17;;;6.90;99.90;;;;;;5071073;28;20203;-63
2022/09/30 00:06:43;;;;;;;17.73;13.50;;;7.00;99.90;;;;;;5070077;28;20243;-62
2022/09/30 00:09:12;;;;;;;18.30;13.47;;;7.00;99.90;;;;;;5067117;28;20226;-61
2022/09/30 00:11:41;;;;;;;19.07;13.53;;;6.90;99.90;;;;;;5069321;28;20200;-61
2022/09/30 00:14:16;;;;;;;20.97;13.77;;;6.90;99.90;;;;;;5071203;28;20224;-61
2022/09/30 00:16:44;;;;;;;20.30;13.50;;;6.90;99.90;;;;;;5072631;28;20282;-61
2022/09/30 00:19:13;;;;;;;17.00;13.53;;;6.90;99.90;;;;;;5070984;28;20677;-62
2022/09/30 00:21:42;;;;;;;18.73;13.47;;;6.90;99.90;;;;;;5071051;28;20219;-61
2022/09/30 00:24:10;;;;;;;17.30;12.97;;;6.80;99.90;;;;;;5073020;28;20195;-61
2022/09/30 00:26:38;;;;;;;16.67;11.97;;;6.80;99.90;;;;;;5075695;28;20639;-61
2022/09/30 00:29:07;;;;;;;15.27;11.97;;;6.70;99.90;;;;;;5073222;28;20196;-61
2022/09/30 00:31:37;;;;;;;15.43;12.97;;;6.60;99.90;;;;;;5071819;28;20200;-61
2022/09/30 00:34:10;;;;;;;17.07;13.80;;;6.60;99.90;;;;;;5063879;28;20596;-62
2022/09/30 00:36:42;;;;;;;17.40;13.83;;;6.60;99.90;;;;;;5075490;28;20219;-61
2022/09/30 00:39:13;;;;;;;19.77;14.63;;;6.60;99.90;;;;;;5067182;28;20214;-62
2022/09/30 00:41:42;;;;;;;20.90;16.03;;;6.70;99.90;;;;;;5069509;28;20192;-61
2022/09/30 00:44:44;;;;;;;20.47;14.40;;;6.70;99.90;;;;;;5069867;28;20192;-61
2022/09/30 00:47:49;;;;;;;19.40;14.43;;;6.80;99.90;;;;;;5060952;28;20207;-61
2022/09/30 00:50:33;;;;;;;23.10;15.50;;;6.60;99.90;;;;;;5049094;28;20205;-61
2022/09/30 00:53:08;;;;;;;22.17;15.37;;;6.60;99.90;;;;;;5075095;28;20191;-61
2022/09/30 00:55:44;;;;;;;20.67;15.97;;;6.70;99.90;;;;;;5060086;28;20216;-61
2022/09/30 00:58:20;;;;;;;20.43;16.20;;;6.70;99.90;;;;;;5068436;28;20199;-61
2022/09/30 01:00:50;;;;;;;25.13;16.83;;;6.70;99.90;;;;;;5061651;28;20204;-61
2022/09/30 01:03:22;;;;;;;21.03;14.33;;;6.70;99.90;;;;;;5075477;28;20274;-61
2022/09/30 01:05:51;;;;;;;18.97;14.30;;;6.60;99.90;;;;;;5069247;28;20982;-61
2022/09/30 01:08:22;;;;;;;19.80;15.17;;;6.50;99.90;;;;;;5066388;28;20192;-61
2022/09/30 01:10:50;;;;;;;20.70;15.50;;;6.50;99.90;;;;;;5067983;28;20207;-61
2022/09/30 01:13:21;;;;;;;21.83;16.70;;;6.50;99.90;;;;;;5070885;28;20196;-61
2022/09/30 01:16:19;;;;;;;23.27;16.63;;;6.60;99.90;;;;;;5061232;28;20819;-61
2022/09/30 01:19:04;;;;;;;21.33;16.23;;;6.60;99.90;;;;;;5062305;28;20582;-61
2022/09/30 01:21:59;;;;;;;21.13;15.30;;;6.70;99.90;;;;;;5062428;28;20252;-61
2022/09/30 01:25:02;;;;;;;23.57;15.40;;;6.70;99.90;;;;;;5061328;28;20213;-63
2022/09/30 01:27:51;;;;;;;17.23;14.17;;;6.70;99.90;;;;;;5065202;28;20654;-61
2022/09/30 01:30:21;;;;;;;18.30;14.50;;;6.60;99.90;;;;;;5062100;28;20212;-61
2022/09/30 01:33:09;;;;;;;17.77;14.23;;;6.50;99.90;;;;;;5069602;28;20267;-61
2022/09/30 01:35:56;;;;;;;19.73;14.10;;;6.50;99.90;;;;;;5072467;28;20190;-61
2022/09/30 01:38:30;;;;;;;19.17;14.30;;;6.40;99.90;;;;;;5068304;28;20196;-61
2022/09/30 01:41:04;;;;;;;16.00;13.60;;;6.40;99.90;;;;;;5063403;28;20254;-61
2022/09/30 01:43:44;;;;;;;20.00;14.50;;;6.30;99.90;;;;;;5063724;28;20282;-61
2022/09/30 01:46:21;;;;;;;19.27;14.53;;;6.30;99.90;;;;;;5068261;28;20846;-61
2022/09/30 01:48:58;;;;;;;20.60;13.80;;;6.20;99.90;;;;;;5067420;28;20195;-61
2022/09/30 01:51:35;;;;;;;19.93;14.33;;;6.20;99.90;;;;;;5064373;28;20204;-61
2022/09/30 01:54:08;;;;;;;19.67;14.13;;;6.20;99.90;;;;;;5101759;28;20188;-61
2022/09/30 01:56:42;;;;;;;22.20;14.23;;;6.20;99.90;;;;;;5061749;28;20199;-61
2022/09/30 01:59:15;;;;;;;18.10;13.50;;;6.20;99.90;;;;;;5057764;28;20704;-61
2022/09/30 02:01:48;;;;;;;15.47;13.03;;;6.10;99.90;;;;;;5065778;28;20215;-61
2022/09/30 02:04:25;;;;;;;17.87;13.90;;;6.10;99.90;;;;;;5065380;28;20201;-61
2022/09/30 02:06:57;;;;;;;21.83;14.00;;;6.00;99.90;;;;;;5066041;28;20235;-61
2022/09/30 02:09:32;;;;;;;22.33;13.97;;;6.00;99.90;;;;;;5066882;28;20254;-61
2022/09/30 02:12:04;;;;;;;18.87;13.97;;;6.00;99.90;;;;;;5071237;28;21504;-61
2022/09/30 02:14:39;;;;;;;21.83;13.97;;;6.00;99.90;;;;;;5097657;27;20189;-63
2022/09/30 02:17:14;;;;;;;21.17;14.87;;;6.00;99.90;;;;;;5065649;28;20570;-63
2022/09/30 02:19:47;;;;;;;18.37;14.53;;;6.00;99.90;;;;;;5063847;28;20187;-63
2022/09/30 02:22:20;;;;;;;21.43;14.57;;;6.00;99.90;;;;;;5068011;28;20200;-63
2022/09/30 02:24:55;;;;;;;24.40;15.90;;;6.10;99.90;;;;;;5068744;28;20690;-63
2022/09/30 02:27:27;;;;;;;22.20;15.50;;;6.10;99.90;;;;;;5066056;28;20216;-63
2022/09/30 02:30:02;;;;;;;20.37;15.07;;;6.10;99.90;;;;;;5078059;28;20497;-63
2022/09/30 02:32:34;;;;;;;24.87;16.67;;;6.10;99.90;;;;;;5074989;28;20302;-63
2022/09/30 02:35:09;;;;;;;21.20;15.77;;;6.10;99.90;;;;;;5063240;28;20200;-63
2022/09/30 02:37:41;;;;;;;19.87;15.47;;;6.00;99.90;;;;;;5066818;28;20912;-63
2022/09/30 02:40:14;;;;;;;23.40;16.63;;;6.00;99.90;;;;;;5065164;28;20306;-63
2022/09/30 02:42:45;;;;;;;23.70;15.40;;;6.00;99.90;;;;;;5058149;28;20230;-63
2022/09/30 02:45:17;;;;;;;21.20;15.17;;;5.90;99.90;;;;;;5053846;28;20213;-63
2022/09/30 02:47:58;;;;;;;20.03;15.10;;;5.90;99.90;;;;;;5058389;28;20188;-63
2022/09/30 02:50:32;;;;;;;17.53;14.73;;;5.80;99.90;;;;;;5064586;28;20200;-63
2022/09/30 02:53:14;;;;;;;20.23;14.40;;;5.80;99.90;;;;;;5061340;28;20208;-63
2022/09/30 02:55:59;;;;;;;19.03;14.07;;;5.70;99.90;;;;;;5065247;28;20596;-63
2022/09/30 02:58:28;;;;;;;22.70;14.67;;;5.70;99.90;;;;;;5069042;28;20219;-63
2022/09/30 03:00:57;;;;;;;22.37;14.80;;;5.60;99.90;;;;;;5059774;28;20192;-63
2022/09/30 03:03:30;;;;;;;21.43;14.83;;;5.60;99.90;;;;;;5053869;28;20211;-63
2022/09/30 03:05:59;;;;;;;21.00;14.67;;;5.60;99.90;;;;;;5063817;28;20232;-63
2022/09/30 03:08:28;;;;;;;19.93;14.73;;;5.60;99.90;;;;;;5066285;28;20203;-63
2022/09/30 03:10:56;;;;;;;23.00;15.70;;;5.60;99.90;;;;;;5076548;28;20203;-63
2022/09/30 03:13:57;;;;;;;19.63;14.70;;;5.60;99.90;;;;;;5066574;28;20191;-63
2022/09/30 03:16:39;;;;;;;21.77;15.60;;;5.60;99.90;;;;;;5052446;28;20208;-63
2022/09/30 03:19:23;;;;;;;22.40;15.07;;;5.60;99.90;;;;;;5069161;28;20191;-63
2022/09/30 03:22:10;;;;;;;19.90;14.63;;;5.60;99.90;;;;;;5072614;28;20198;-63
2022/09/30 03:24:59;;;;;;;18.47;14.57;;;5.60;99.90;;;;;;5053314;28;20550;-63
2022/09/30 03:27:36;;;;;;;21.07;14.93;;;5.60;99.90;;;;;;5077228;28;20751;-63
2022/09/30 03:30:07;;;;;;;21.50;15.77;;;5.60;99.90;;;;;;5069006;28;20202;-63
2022/09/30 03:32:48;;;;;;;19.53;15.00;;;5.60;99.90;;;;;;5062786;28;20203;-63
2022/09/30 03:35:26;;;;;;;21.73;15.97;;;5.60;99.90;;;;;;5080883;28;20191;-63
2022/09/30 03:38:04;;;;;;;21.57;14.83;;;5.60;99.90;;;;;;5100319;28;20211;-63
2022/09/30 03:40:41;;;;;;;22.00;15.17;;;5.60;99.90;;;;;;5070776;28;20204;-63
2022/09/30 03:43:17;;;;;;;20.23;15.07;;;5.50;99.90;;;;;;5071861;28;20219;-63
2022/09/30 03:45:53;;;;;;;22.37;14.93;;;5.50;99.90;;;;;;5067371;28;20647;-63
2022/09/30 03:48:24;;;;;;;24.30;15.23;;;5.50;99.90;;;;;;5071017;28;20203;-63
2022/09/30 03:50:53;;;;;;;23.67;15.80;;;5.50;99.90;;;;;;5063399;28;20196;-63
2022/09/30 03:53:25;;;;;;;20.93;15.13;;;5.40;99.90;;;;;;5074643;28;20228;-63
2022/09/30 03:55:53;;;;;;;21.57;16.13;;;5.40;99.90;;;;;;5089579;28;20196;-63
2022/09/30 03:58:23;;;;;;;25.37;16.10;;;5.40;99.90;;;;;;5063090;28;20196;-63
2022/09/30 04:00:53;;;;;;;23.73;16.43;;;5.40;99.90;;;;;;5062486;28;20196;-60
2022/09/30 04:03:22;;;;;;;22.70;16.97;;;5.40;99.90;;;;;;5065733;28;20199;-63
2022/09/30 04:05:50;;;;;;;21.50;16.27;;;5.40;99.90;;;;;;5065906;28;20232;-62
2022/09/30 04:08:19;;;;;;;21.57;15.97;;;5.40;99.90;;;;;;5061555;28;20220;-63
2022/09/30 04:10:49;;;;;;;24.20;16.10;;;5.40;99.90;;;;;;5065036;28;20192;-63
2022/09/30 04:13:17;;;;;;;25.60;17.00;;;5.40;99.90;;;;;;5065701;28;20196;-62
2022/09/30 04:15:54;;;;;;;23.83;16.53;;;5.40;99.90;;;;;;5078410;28;20214;-62
2022/09/30 04:18:23;;;;;;;25.07;17.83;;;5.40;99.90;;;;;;5071237;28;20581;-63
2022/09/30 04:20:52;;;;;;;22.43;16.30;;;5.50;99.90;;;;;;5060278;28;20199;-61
2022/09/30 04:23:20;;;;;;;23.90;17.00;;;5.50;99.90;;;;;;5063213;28;20208;-63
2022/09/30 04:25:54;;;;;;;22.70;16.33;;;5.50;99.90;;;;;;5057172;28;20191;-63
2022/09/30 04:28:22;;;;;;;23.07;15.30;;;5.50;99.90;;;;;;5060644;28;20208;-63
2022/09/30 04:30:51;;;;;;;22.60;16.13;;;5.40;99.90;;;;;;5059986;28;20207;-63
2022/09/30 04:33:19;;;;;;;22.37;16.07;;;5.40;99.90;;;;;;5064818;28;20662;-63
2022/09/30 04:35:48;;;;;;;18.97;15.00;;;5.30;99.90;;;;;;5065848;28;20208;-63
2022/09/30 04:38:16;;;;;;;23.73;15.27;;;5.30;99.90;;;;;;5069388;28;20357;-63
2022/09/30 04:40:45;;;;;;;19.13;14.93;;;5.20;99.90;;;;;;5073453;28;20192;-63
2022/09/30 04:43:15;;;;;;;22.63;15.47;;;5.20;99.90;;;;;;5072420;28;20555;-63
2022/09/30 04:45:44;;;;;;;19.97;15.13;;;5.10;99.90;;;;;;5066100;28;20192;-63
2022/09/30 04:48:13;;;;;;;19.63;13.70;;;5.10;99.90;;;;;;5067456;28;20222;-63
2022/09/30 04:50:44;;;;;;;20.57;15.40;;;5.10;99.90;;;;;;5068705;28;20180;-63
2022/09/30 04:53:14;;;;;;;19.70;14.97;;;5.10;99.90;;;;;;5070956;28;20197;-63
2022/09/30 04:55:43;;;;;;;20.57;15.77;;;5.00;99.90;;;;;;5067818;28;20199;-63
2022/09/30 04:58:12;;;;;;;21.17;15.47;;;5.00;99.90;;;;;;5063738;28;20206;-63
2022/09/30 05:00:42;;;;;;;23.13;14.93;;;5.00;99.90;;;;;;5100825;28;20277;-63
2022/09/30 05:03:10;;;;;;;22.83;16.60;;;5.00;99.90;;;;;;5064374;28;20210;-63
2022/09/30 05:05:39;;;;;;;25.77;16.17;;;5.00;99.90;;;;;;5071414;28;20578;-63
2022/09/30 05:08:10;;;;;;;24.57;15.97;;;5.00;99.90;;;;;;5067636;28;20219;-63
2022/09/30 05:10:38;;;;;;;23.77;17.73;;;5.00;99.90;;;;;;5072760;28;20188;-63
2022/09/30 05:13:07;;;;;;;25.67;17.47;;;5.00;99.90;;;;;;5069535;28;20203;-63
2022/09/30 05:15:35;;;;;;;23.40;16.43;;;5.00;99.90;;;;;;5068782;28;20192;-63
2022/09/30 05:18:05;;;;;;;21.00;15.50;;;5.00;99.90;;;;;;5098696;27;20213;-63
2022/09/30 05:20:33;;;;;;;24.63;17.07;;;5.00;99.90;;;;;;5067218;28;20199;-63
2022/09/30 05:23:01;;;;;;;26.87;17.20;;;5.00;99.90;;;;;;5064086;28;20211;-63
2022/09/30 05:25:30;;;;;;;23.60;17.20;;;5.00;99.90;;;;;;5063127;28;20209;-63
2022/09/30 05:28:01;;;;;;;26.33;17.33;;;5.00;99.90;;;;;;5070367;28;20222;-63
2022/09/30 05:30:29;;;;;;;27.57;18.17;;;5.10;99.90;;;;;;5064784;28;20221;-63
2022/09/30 05:32:57;;;;;;;32.77;21.30;;;5.10;99.90;;;;;;5068203;28;20538;-62
2022/09/30 05:35:28;;;;;;;31.90;20.57;;;5.20;99.90;;;;;;5067491;28;20283;-63
2022/09/30 05:37:56;;;;;;;27.47;19.07;;;5.20;99.90;;;;;;5065870;28;20665;-62
2022/09/30 05:40:24;;;;;;;29.97;20.03;;;5.30;99.90;;;;;;5066113;28;20196;-63
2022/09/30 05:42:52;;;;;;;28.37;19.13;;;5.30;99.90;;;;;;5069783;28;20682;-63
2022/09/30 05:45:21;;;;;;;32.80;20.07;;;5.30;99.90;;;;;;5057354;28;20199;-63
2022/09/30 05:47:52;;;;;;;33.07;20.07;;;5.30;99.90;;;;;;5067621;28;20212;-62
2022/09/30 05:50:20;;;;;;;30.10;18.80;;;5.40;99.90;;;;;;5047824;28;20536;-63
2022/09/30 05:52:50;;;;;;;26.93;18.87;;;5.40;99.90;;;;;;5062605;28;20208;-63
2022/09/30 05:55:19;;;;;;;27.80;18.80;;;5.40;99.90;;;;;;5064062;28;20227;-62
2022/09/30 05:57:48;;;;;;;29.47;19.27;;;5.30;99.90;;;;;;5069202;28;20196;-63
2022/09/30 06:00:17;;;;;;;33.37;21.70;;;5.30;99.90;;;;;;5059707;28;20208;-63
2022/09/30 06:02:45;;;;;;;33.37;20.40;;;5.30;99.90;;;;;;5064690;28;20216;-63
2022/09/30 06:05:14;;;;;;;35.07;23.47;;;5.30;99.90;;;;;;5071607;28;20204;-66
2022/09/30 06:07:43;;;;;;;34.53;22.83;;;5.40;99.90;;;;;;5062627;28;20211;-63
2022/09/30 06:10:13;;;;;;;36.63;24.17;;;5.40;99.90;;;;;;5064956;28;20211;-63
2022/09/30 06:12:41;;;;;;;43.43;24.33;;;5.50;99.90;;;;;;5102712;28;20204;-63
2022/09/30 06:15:10;;;;;;;39.47;24.80;;;5.50;99.90;;;;;;5068806;28;20200;-63
2022/09/30 06:17:41;;;;;;;39.13;26.20;;;5.60;99.90;;;;;;5058881;28;20197;-62
2022/09/30 06:20:10;;;;;;;51.10;27.93;;;5.60;99.90;;;;;;5065387;28;20199;-60
2022/09/30 06:22:38;;;;;;;39.00;27.03;;;5.70;99.90;;;;;;5100576;28;20238;-60
2022/09/30 06:25:07;;;;;;;45.10;27.20;;;5.80;99.90;;;;;;5064677;28;20211;-60
2022/09/30 06:27:37;;;;;;;45.47;29.33;;;5.80;99.90;;;;;;5074213;28;20654;-63
2022/09/30 06:30:07;;;;;;;48.47;28.23;;;5.90;99.90;;;;;;5063112;28;20194;-62
2022/09/30 06:32:35;;;;;;;42.80;27.93;;;6.00;99.90;;;;;;5074873;28;20196;-63
2022/09/30 06:35:05;;;;;;;43.30;27.60;;;6.10;99.90;;;;;;5065659;28;20201;-63
2022/09/30 06:37:36;;;;;;;45.70;27.30;;;6.20;99.90;;;;;;5065230;28;20202;-63
2022/09/30 06:40:06;;;;;;;41.23;27.27;;;6.30;99.90;;;;;;5065479;28;20188;-62
2022/09/30 06:42:36;;;;;;;43.33;26.60;;;6.40;99.90;;;;;;5060147;28;20184;-63
2022/09/30 06:45:05;;;;;;;40.97;26.77;;;6.50;99.90;;;;;;5098716;28;20253;-63
2022/09/30 06:47:33;;;;;;;41.30;27.50;;;6.50;99.90;;;;;;5070237;28;20199;-63
2022/09/30 06:50:02;;;;;;;49.57;32.60;;;6.60;99.90;;;;;;5063855;28;20203;-63
2022/09/30 06:52:30;;;;;;;50.03;31.73;;;6.70;99.90;;;;;;5071421;28;20200;-63
2022/09/30 06:54:58;;;;;;;46.27;29.90;;;6.70;99.90;;;;;;5063840;28;20193;-63
2022/09/30 06:57:26;;;;;;;46.53;28.20;;;6.70;99.90;;;;;;5058790;28;20193;-63
2022/09/30 06:59:56;;;;;;;40.60;27.27;;;6.90;99.90;;;;;;5067506;28;20188;-63
2022/09/30 07:02:24;;;;;;;44.63;27.87;;;6.90;99.90;;;;;;5057298;28;20205;-63
2022/09/30 07:04:52;;;;;;;38.83;27.10;;;7.00;99.90;;;;;;5068909;28;20250;-63
2022/09/30 07:07:21;;;;;;;37.47;25.33;;;7.20;99.90;;;;;;5058078;28;20729;-60
2022/09/30 07:09:50;;;;;;;43.67;28.40;;;7.30;99.90;;;;;;5065567;28;20683;-61
2022/09/30 07:12:18;;;;;;;45.20;28.47;;;7.40;99.90;;;;;;5068479;28;20535;-60
2022/09/30 07:14:46;;;;;;;48.23;30.30;;;7.70;99.90;;;;;;5062738;28;20623;-61
2022/09/30 07:17:16;;;;;;;51.23;33.67;;;8.10;99.90;;;;;;5076264;28;20199;-60
2022/09/30 07:19:44;;;;;;;52.90;35.43;;;8.50;99.90;;;;;;5076174;28;20202;-61
2022/09/30 07:22:28;;;;;;;54.50;35.87;;;8.70;99.90;;;;;;5071341;28;20200;-61
2022/09/30 07:25:01;;;;;;;42.83;30.70;;;9.00;99.90;;;;;;5070845;28;20195;-61
2022/09/30 07:27:32;;;;;;;41.67;28.30;;;9.20;99.90;;;;;;5067409;28;20654;-61
2022/09/30 07:30:01;;;;;;;35.73;26.97;;;9.40;99.90;;;;;;5070741;28;20254;-61
2022/09/30 07:32:46;;;;;;;34.97;24.53;;;9.70;99.90;;;;;;5073103;28;20525;-61
2022/09/30 07:35:18;;;;;;;27.23;21.10;;;9.90;99.90;;;;;;5068657;28;20205;-61
2022/09/30 07:37:46;;;;;;;27.80;19.80;;;10.10;99.90;;;;;;5061258;28;20191;-62
2022/09/30 07:40:15;;;;;;;27.50;18.87;;;10.30;99.90;;;;;;5081955;28;20943;-62
2022/09/30 07:42:44;;;;;;;26.37;16.40;;;10.40;99.90;;;;;;5070319;28;20208;-62
2022/09/30 07:45:15;;;;;;;18.47;14.23;;;10.60;99.90;;;;;;5067260;28;20274;-62
2022/09/30 07:47:45;;;;;;;20.33;14.93;;;10.80;99.90;;;;;;5061984;28;20200;-62
2022/09/30 07:50:20;;;;;;;21.90;15.93;;;11.00;99.90;;;;;;5068921;28;20215;-62
2022/09/30 07:52:48;;;;;;;15.77;13.07;;;11.10;99.90;;;;;;5063331;28;20215;-62
2022/09/30 07:55:17;;;;;;;19.17;13.33;;;11.20;99.90;;;;;;5068419;28;20196;-62
2022/09/30 07:57:45;;;;;;;17.13;13.60;;;11.30;99.90;;;;;;5057000;28;20195;-62
2022/09/30 08:00:13;;;;;;;18.27;13.20;;;11.50;99.90;;;;;;5063297;28;20188;-62
2022/09/30 08:03:03;;;;;;;14.50;12.03;;;11.60;99.90;;;;;;5059984;28;20294;-62
2022/09/30 08:05:31;;;;;;;22.03;11.67;;;11.80;99.90;;;;;;5062562;28;20236;-61
2022/09/30 08:07:59;;;;;;;18.70;12.20;;;12.00;99.90;;;;;;5074241;28;20194;-62
2022/09/30 08:10:27;;;;;;;15.77;12.60;;;12.20;99.90;;;;;;5062012;28;20590;-62
2022/09/30 08:12:56;;;;;;;16.87;13.40;;;12.30;99.90;;;;;;5072233;28;20188;-62
2022/09/30 08:15:28;;;;;;;20.83;14.03;;;12.50;99.90;;;;;;5073396;28;20626;-62
2022/09/30 08:17:56;;;;;;;17.17;14.80;;;12.60;99.90;;;;;;5073229;28;20310;-62
2022/09/30 08:20:25;;;;;;;20.20;13.70;;;12.70;99.90;;;;;;5070755;28;20192;-62
2022/09/30 08:22:54;;;;;;;17.23;12.23;;;12.80;99.90;;;;;;5072979;28;20239;-62
2022/09/30 08:25:23;;;;;;;17.57;12.87;;;12.90;99.90;;;;;;5075993;28;20204;-62
2022/09/30 08:27:51;;;;;;;14.47;12.47;;;13.00;99.90;;;;;;5070381;28;20196;-62
2022/09/30 08:30:20;;;;;;;19.50;12.83;;;13.00;99.90;;;;;;5078649;28;20219;-62
2022/09/30 08:32:48;;;;;;;19.37;12.63;;;13.10;99.90;;;;;;5068289;28;20705;-63
2022/09/30 08:35:17;;;;;;;16.90;12.00;;;13.10;99.90;;;;;;5074701;28;20207;-62
2022/09/30 08:37:46;;;;;;;39.10;21.30;;;13.20;99.90;;;;;;5074999;28;20199;-62
2022/09/30 08:40:20;;;;;;;15.97;12.07;;;13.30;99.90;;;;;;5071437;28;20669;-63
2022/09/30 08:43:07;;;;;;;23.20;16.70;;;13.40;99.90;;;;;;5062177;28;20657;-62
2022/09/30 08:45:43;;;;;;;14.03;11.03;;;13.50;99.90;;;;;;5082432;28;20202;-62
2022/09/30 08:48:29;;;;;;;49.40;25.13;;;13.50;99.90;;;;;;5068752;28;20199;-62
2022/09/30 08:51:07;;;;;;;43.00;22.37;;;13.60;99.90;;;;;;5068192;28;20215;-63
2022/09/30 08:53:42;;;;;;;27.03;16.13;;;13.70;99.90;;;;;;5071593;28;20194;-62
2022/09/30 08:56:19;;;;;;;16.67;10.60;;;13.80;99.90;;;;;;5073287;28;20559;-62
2022/09/30 08:58:51;;;;;;;17.83;11.90;;;14.00;99.90;;;;;;5060147;28;20196;-62
2022/09/30 09:01:26;;;;;;;47.40;30.70;;;14.20;99.90;;;;;;5079253;28;20231;-62
2022/09/30 09:03:56;;;;;;;19.33;13.77;;;14.20;99.90;;;;;;5072177;28;20223;-63
2022/09/30 09:06:30;;;;;;;45.07;24.40;;;14.30;99.90;;;;;;5068079;28;20571;-62
2022/09/30 09:09:19;;;;;;;69.13;29.23;;;14.40;99.90;;;;;;5070132;28;20199;-63
2022/09/30 09:11:59;;;;;;;103.30;45.37;;;14.40;99.90;;;;;;5077439;28;20201;-62
2022/09/30 09:14:42;;;;;;;58.70;27.13;;;14.50;99.90;;;;;;5063483;28;20552;-63
2022/09/30 09:17:20;;;;;;;27.13;16.27;;;14.60;99.90;;;;;;5066977;28;20192;-62
2022/09/30 09:20:00;;;;;;;26.27;16.33;;;14.50;99.90;;;;;;5068955;28;20238;-62
2022/09/30 09:22:30;;;;;;;20.60;10.87;;;14.60;99.90;;;;;;5073717;28;20200;-63
2022/09/30 09:25:01;;;;;;;19.83;15.27;;;14.60;99.90;;;;;;5071912;28;20195;-63
2022/09/30 09:27:41;;;;;;;20.40;12.63;;;14.70;99.90;;;;;;5066765;28;20204;-62
2022/09/30 09:30:13;;;;;;;10.00;7.33;;;14.80;99.90;;;;;;5077898;28;20226;-63
2022/09/30 09:32:42;;;;;;;21.90;16.83;;;14.90;99.90;;;;;;5072796;28;20193;-63
2022/09/30 09:35:15;;;;;;;11.90;7.63;;;14.90;99.90;;;;;;5074818;28;20220;-63
2022/09/30 09:40:56;;;;;;;19.13;10.20;;;15.10;99.90;;;;;;5078289;28;20203;-63
2022/09/30 09:43:42;;;;;;;18.13;10.23;;;15.20;99.90;;;;;;5077155;28;20230;-63
2022/09/30 09:46:17;;;;;;;16.63;10.60;;;15.30;99.90;;;;;;5067694;28;20201;-63
2022/09/30 09:48:45;;;;;;;26.37;14.37;;;15.40;99.90;;;;;;5068921;28;20201;-62
2022/09/30 09:51:22;;;;;;;12.97;8.93;;;15.40;99.90;;;;;;5070486;28;20216;-63
2022/09/30 09:53:52;;;;;;;14.23;10.10;;;15.40;99.90;;;;;;5060280;28;20233;-63
2022/09/30 09:56:26;;;;;;;12.20;10.60;;;15.60;99.90;;;;;;5064693;28;20202;-63
2022/09/30 09:59:08;;;;;;;22.60;16.80;;;15.80;99.90;;;;;;5065575;28;20220;-63
2022/09/30 10:01:39;;;;;;;9.40;7.60;;;15.90;99.90;;;;;;5069506;28;20682;-63
2022/09/30 10:04:16;;;;;;;10.10;7.03;;;16.00;99.90;;;;;;5070080;28;20212;-63
2022/09/30 10:06:53;;;;;;;11.10;7.63;;;16.10;99.90;;;;;;5078678;28;20223;-63
2022/09/30 10:09:31;;;;;;;7.40;6.13;;;16.20;99.90;;;;;;5069014;28;20193;-63
2022/09/30 10:12:27;;;;;;;12.60;7.77;;;16.30;99.90;;;;;;5068862;28;20193;-63
2022/09/30 10:15:21;;;;;;;11.30;8.63;;;16.40;99.90;;;;;;5072033;28;20207;-63
2022/09/30 10:17:55;;;;;;;8.40;7.40;;;16.50;99.90;;;;;;5057983;28;20786;-63
2022/09/30 10:20:30;;;;;;;10.10;7.63;;;16.50;99.90;;;;;;5061179;28;20223;-62
2022/09/30 10:23:09;;;;;;;10.27;6.90;;;16.60;99.90;;;;;;5070393;28;20658;-63
2022/09/30 10:25:38;;;;;;;6.90;5.90;;;16.60;99.90;;;;;;5074209;28;20202;-62
2022/09/30 10:28:23;;;;;;;6.90;6.30;;;16.80;99.90;;;;;;5062635;28;20215;-63
2022/09/30 10:30:56;;;;;;;6.87;6.27;;;16.80;99.90;;;;;;5065270;28;20207;-64
2022/09/30 10:33:29;;;;;;;11.73;6.40;;;16.90;99.90;;;;;;5065722;28;20194;-63
2022/09/30 10:36:09;;;;;;;8.60;6.30;;;17.00;99.90;;;;;;5061922;28;20195;-63
2022/09/30 10:38:47;;;;;;;10.77;6.70;;;17.20;99.90;;;;;;5064118;28;20202;-63
2022/09/30 10:41:23;;;;;;;7.63;6.67;;;17.50;99.90;;;;;;5072759;28;20200;-63
2022/09/30 10:43:56;;;;;;;7.63;6.27;;;17.60;99.90;;;;;;5067684;28;20641;-63
2022/09/30 10:46:28;;;;;;;10.90;7.30;;;17.80;99.90;;;;;;5063313;28;20276;-63
2022/09/30 10:48:59;;;;;;;7.67;6.47;;;17.90;99.90;;;;;;5068870;28;20196;-63
2022/09/30 10:51:32;;;;;;;7.87;6.97;;;17.90;99.90;;;;;;5065819;28;20221;-63
2022/09/30 10:54:01;;;;;;;6.47;5.87;;;17.90;99.90;;;;;;5064362;28;20646;-63
2022/09/30 10:56:36;;;;;;;8.00;7.13;;;17.70;99.90;;;;;;5103509;27;20219;-63
2022/09/30 10:59:15;;;;;;;6.97;6.23;;;17.80;99.90;;;;;;5066423;28;21100;-63
2022/09/30 11:01:50;;;;;;;9.17;7.57;;;17.90;99.90;;;;;;5093114;27;20195;-63
2022/09/30 11:04:28;;;;;;;7.67;5.93;;;18.20;99.90;;;;;;5061438;28;20200;-63
2022/09/30 11:07:04;;;;;;;9.63;8.07;;;18.20;99.90;;;;;;5061578;28;20273;-63
2022/09/30 11:09:39;;;;;;;8.43;7.30;;;18.10;99.90;;;;;;5066532;28;21140;-63
2022/09/30 11:12:16;;;;;;;6.83;6.13;;;18.30;99.90;;;;;;5063439;28;20787;-63
2022/09/30 11:14:53;;;;;;;6.27;5.77;;;18.30;99.90;;;;;;5078240;28;20195;-63
2022/09/30 11:17:33;;;;;;;8.63;6.47;;;18.40;99.90;;;;;;5071672;28;20200;-63
2022/09/30 11:20:14;;;;;;;6.63;5.97;;;18.60;99.90;;;;;;5069290;28;20206;-63
2022/09/30 11:22:51;;;;;;;8.13;6.00;;;18.70;99.90;;;;;;5069341;28;20218;-63
2022/09/30 11:25:28;;;;;;;8.93;7.03;;;18.80;99.90;;;;;;5067202;28;20189;-63
2022/09/30 11:28:17;;;;;;;5.63;5.13;;;18.70;99.90;;;;;;5071300;28;20245;-63
2022/09/30 11:30:55;;;;;;;5.53;4.87;;;18.40;99.90;;;;;;5067520;28;20826;-63
2022/09/30 11:33:50;;;;;;;5.63;4.63;;;18.60;99.90;;;;;;5064292;28;20656;-63
2022/09/30 11:36:29;;;;;;;5.30;4.80;;;19.20;99.90;;;;;;5062191;28;20196;-63
2022/09/30 11:39:13;;;;;;;7.60;5.23;;;19.40;99.90;;;;;;5076346;28;20210;-63
2022/09/30 11:41:46;;;;;;;5.87;5.23;;;18.90;99.90;;;;;;5065026;28;20200;-63
2022/09/30 11:44:24;;;;;;;6.27;5.13;;;18.50;99.90;;;;;;5083156;28;20218;-63
2022/09/30 11:47:12;;;;;;;5.07;4.67;;;18.50;99.90;;;;;;5063561;28;20219;-63
2022/09/30 11:49:58;;;;;;;6.33;5.50;;;18.90;99.90;;;;;;5069249;28;20196;-63
2022/09/30 11:52:32;;;;;;;7.03;5.50;;;19.00;99.90;;;;;;5065335;28;20217;-63
2022/09/30 11:55:22;;;;;;;5.97;5.23;;;18.90;99.90;;;;;;5079472;28;20195;-63
2022/09/30 11:57:58;;;;;;;7.73;4.70;;;18.80;99.90;;;;;;5064016;28;20201;-64
2022/09/30 12:00:47;;;;;;;6.93;4.33;;;18.80;99.90;;;;;;5082756;28;20196;-63
2022/09/30 12:03:22;;;;;;;5.60;4.70;;;18.80;99.90;;;;;;5076020;28;20192;-63
2022/09/30 12:05:55;;;;;;;4.80;4.40;;;19.10;99.90;;;;;;5068521;28;20624;-63
2022/09/30 12:08:30;;;;;;;5.67;4.13;;;19.20;99.90;;;;;;5074932;28;20196;-63
2022/09/30 12:11:07;;;;;;;7.27;4.87;;;18.80;99.90;;;;;;5070650;28;20212;-63
2022/09/30 12:13:39;;;;;;;9.73;8.47;;;18.70;99.90;;;;;;5071828;28;20205;-63
2022/09/30 12:16:14;;;;;;;15.77;11.27;;;18.70;99.90;;;;;;5065657;28;20200;-64
2022/09/30 12:18:48;;;;;;;9.33;7.13;;;19.00;99.90;;;;;;5080430;28;20204;-64
2022/09/30 12:21:22;;;;;;;4.63;4.13;;;18.80;99.90;;;;;;5082805;28;20202;-64
2022/09/30 12:23:57;;;;;;;4.83;4.40;;;18.90;99.90;;;;;;5071788;28;20184;-64
2022/09/30 12:26:26;;;;;;;11.50;8.83;;;19.10;99.90;;;;;;5080650;28;20203;-64
2022/09/30 12:32:10;;;;;;;6.83;5.80;;;19.60;99.90;;;;;;5068591;28;20208;-64
2022/09/30 12:34:53;;;;;;;8.00;5.80;;;19.60;99.90;;;;;;5058468;28;20213;-64
2022/09/30 12:37:43;;;;;;;16.63;11.80;;;19.40;99.90;;;;;;5098061;28;20192;-63
2022/09/30 12:40:25;;;;;;;6.10;5.57;;;19.20;99.90;;;;;;5069914;28;20617;-63
2022/09/30 12:43:18;;;;;;;10.17;9.20;;;19.10;99.90;;;;;;5063793;28;20210;-64
2022/09/30 12:46:09;;;;;;;10.30;8.10;;;19.00;99.90;;;;;;5069971;28;20195;-63
2022/09/30 12:48:42;;;;;;;9.67;8.77;;;18.70;99.90;;;;;;5069555;28;20200;-63
2022/09/30 12:51:29;;;;;;;5.40;5.00;;;18.50;99.90;;;;;;5069261;28;20208;-63
2022/09/30 12:54:04;;;;;;;10.43;8.77;;;18.40;99.90;;;;;;5072181;28;20209;-63
2022/09/30 12:56:33;;;;;;;8.37;7.37;;;18.50;99.90;;;;;;5073213;28;20211;-63
2022/09/30 12:59:02;;;;;;;6.33;5.73;;;18.50;99.90;;;;;;5061933;28;20211;-63
2022/09/30 13:01:35;;;;;;;6.80;5.43;;;18.70;99.90;;;;;;5075868;28;20587;-63
2022/09/30 13:04:30;;;;;;;8.67;7.27;;;18.50;99.90;;;;;;5097740;28;20706;-63
2022/09/30 13:07:16;;;;;;;6.40;5.90;;;18.40;99.90;;;;;;5054458;28;20224;-63
2022/09/30 13:10:21;;;;;;;7.47;6.77;;;18.30;99.90;;;;;;5069527;28;20196;-64
2022/09/30 13:13:16;;;;;;;10.97;8.17;;;18.30;99.90;;;;;;5080983;28;20571;-63
2022/09/30 13:15:46;;;;;;;8.87;6.00;;;18.40;99.90;;;;;;5082350;28;20188;-63
2022/09/30 13:18:51;;;;;;;5.90;5.30;;;18.40;99.90;;;;;;5076486;28;20200;-63
2022/09/30 13:21:23;;;;;;;8.40;7.37;;;18.40;99.90;;;;;;5064164;28;20222;-63